Kelso, United Kingdom
Current Conditions -  °F | °C
As of 11:50 AM on Friday 28 Nov 2014 (Local Time) from EGQM Reporting Station
Broken Clouds Broken Clouds  
Wind Chill: 50°   Ceiling: 700
Heat Index: 50°   Visibility: 6mi
Dew Point: 50°   Wind: 10mph
Humidity: 100%   Direction: 100°E
Pressure: 29.77"   Gusts: NA
Location:  55.6°N, 2.43°W
Report Text: EGQM 281150Z AUTO 10009KT 9999 BKN007/// 10/10 Q1008 RERA
Loading
Personal Weather Stations






























Interactive Weather Map New forecast layout! Learn more

10-Day Weather Forecast

Advertisements
Track Severe Weather on mobile